Hlavní strana
METAR-TAF:

METAR-TAF

Letiště :

Leknes, Norsko

zeměpisná šířka: 68-09N, zeměpisná délka: 013-37E, výška: 2 m

Aktuální stav počasí

Zpráva byla vytvořena před 31 minutami, v 11:20 UTC
Severní vítr 5 kt
Teplota -2°C
Vlhkost vzduchu 69%
Tlak 995 hPa
Viditelnost 10 km a více
Skoro jasno ve výšce 3000 ft
Oblačno až skoro zataženo ve výšce 4500 ft
přeháňky v blízkosti

METAR: ENLK 291120Z 35005KT 9999 VCSH FEW030 BKN045 M02/M07 Q0995

Čas: 12:51 (11:51 UTC)


TAF: chybějící

Stav a předpovědi počasí z více než 4 000 letišť (zprávy METAR a TAF).

Červené a žluté tečky na mapě představují dostupné meteorologické stanice.

Když kurzor umístíte na tečku, zobrazí se název stanice.

Pak kliknutím zobrazíte stav a předpověď počasí.

Chcete-li změnit mapu, kliknutím na zelené tlačítko se znaménkem +mapu přiblížíte, kliknutím na zelené tlačítko se znaménkem – mapu oddálíte a kliknutím na zelené šipky přejdete na sousední mapy.


METAR-TAF: